createdAt,value
2022-07-28T00:01:10.794Z,100.00
2022-07-28T00:03:37.754Z,100.00
2022-07-28T00:06:04.788Z,100.00
2022-07-28T00:08:31.795Z,100.00
2022-07-28T00:10:58.790Z,100.00
2022-07-28T00:13:25.838Z,100.00
2022-07-28T00:15:52.860Z,100.00
2022-07-28T00:18:19.941Z,100.00
2022-07-28T00:20:46.961Z,100.00
2022-07-28T00:23:13.992Z,100.00
2022-07-28T00:25:41.063Z,100.00
2022-07-28T00:28:08.052Z,100.00
2022-07-28T00:30:35.103Z,100.00
2022-07-28T00:33:02.387Z,100.00
2022-07-28T00:35:31.862Z,100.00
2022-07-28T00:38:00.305Z,100.00
2022-07-28T00:40:47.582Z,100.00
2022-07-28T00:43:15.372Z,100.00
2022-07-28T00:45:42.722Z,100.00
2022-07-28T00:48:09.629Z,100.00
2022-07-28T00:50:39.669Z,100.00
2022-07-28T00:53:08.860Z,100.00
2022-07-28T00:56:03.625Z,100.00
2022-07-28T00:58:27.159Z,100.00
2022-07-28T01:00:54.975Z,100.00
2022-07-28T01:03:23.251Z,100.00
2022-07-28T01:05:59.055Z,100.00
2022-07-28T01:09:04.734Z,100.00
2022-07-28T01:11:43.037Z,100.00
2022-07-28T01:14:49.956Z,100.00
2022-07-28T01:17:31.850Z,98.46
2022-07-28T01:20:11.731Z,100.00
2022-07-28T01:23:10.931Z,98.92
2022-07-28T01:25:48.517Z,100.00
2022-07-28T01:28:28.129Z,100.00
2022-07-28T01:30:58.004Z,99.62
2022-07-28T01:33:49.429Z,96.39
2022-07-28T01:36:21.235Z,96.83
2022-07-28T01:38:49.664Z,95.99
2022-07-28T01:41:20.577Z,95.71
2022-07-28T01:43:54.823Z,96.49
2022-07-28T01:46:22.832Z,96.10
2022-07-28T01:48:51.144Z,100.00
2022-07-28T01:51:20.313Z,98.92
2022-07-28T01:53:49.349Z,97.04
2022-07-28T01:56:19.573Z,95.56
2022-07-28T01:58:49.419Z,94.31
2022-07-28T02:01:18.722Z,94.97
2022-07-28T02:03:50.400Z,97.66
2022-07-28T02:06:20.351Z,96.39
2022-07-28T02:08:49.381Z,97.00
2022-07-28T02:11:35.081Z,96.71
2022-07-28T02:14:03.156Z,98.42
2022-07-28T02:16:31.493Z,97.57
2022-07-28T02:19:00.868Z,96.08
2022-07-28T02:21:31.313Z,95.02
2022-07-28T02:24:00.207Z,91.49
2022-07-28T02:26:37.109Z,94.10
2022-07-28T02:29:14.916Z,94.56
2022-07-28T02:32:26.790Z,93.71
2022-07-28T02:34:55.568Z,93.65
2022-07-28T02:37:23.611Z,96.11
2022-07-28T02:40:00.034Z,98.24
2022-07-28T02:42:32.981Z,97.98
2022-07-28T02:45:03.149Z,96.94
2022-07-28T02:47:37.881Z,98.09
2022-07-28T02:50:05.835Z,96.84
2022-07-28T02:52:33.595Z,95.31
2022-07-28T02:55:02.766Z,95.13
2022-07-28T02:57:31.597Z,94.45
2022-07-28T02:59:58.944Z,94.82
2022-07-28T03:02:30.866Z,96.38
2022-07-28T03:04:59.693Z,97.12
2022-07-28T03:07:31.925Z,97.10
2022-07-28T03:10:00.440Z,95.06
2022-07-28T03:12:27.831Z,96.43
2022-07-28T03:14:55.017Z,96.02
2022-07-28T03:17:22.774Z,94.44
2022-07-28T03:19:49.775Z,95.95
2022-07-28T03:22:17.636Z,95.85
2022-07-28T03:24:53.353Z,94.68
2022-07-28T03:27:28.022Z,97.05
2022-07-28T03:30:05.406Z,96.42
2022-07-28T03:32:37.361Z,98.40
2022-07-28T03:35:06.574Z,99.53
2022-07-28T03:38:01.660Z,100.00
2022-07-28T03:40:32.162Z,99.71
2022-07-28T03:43:03.537Z,98.28
2022-07-28T03:45:33.200Z,95.97
2022-07-28T03:48:00.960Z,94.39
2022-07-28T03:50:29.964Z,92.07
2022-07-28T03:52:58.065Z,93.81
2022-07-28T03:55:25.796Z,95.08
2022-07-28T03:57:53.153Z,95.75
2022-07-28T04:00:21.133Z,98.29
2022-07-28T04:02:48.214Z,97.69
2022-07-28T04:05:18.146Z,97.08
2022-07-28T04:07:48.859Z,96.44
2022-07-28T04:10:17.529Z,95.02
2022-07-28T04:12:56.717Z,92.69
2022-07-28T04:15:25.526Z,94.28
2022-07-28T04:17:54.300Z,95.05
2022-07-28T04:20:22.711Z,94.34
2022-07-28T04:22:50.603Z,93.42
2022-07-28T04:25:19.186Z,92.35
2022-07-28T04:27:47.010Z,91.43
2022-07-28T04:30:19.370Z,91.07
2022-07-28T04:32:48.968Z,91.61
2022-07-28T04:35:17.622Z,91.77
2022-07-28T04:37:46.109Z,91.88
2022-07-28T04:40:14.502Z,91.81
2022-07-28T04:42:42.133Z,92.37
2022-07-28T04:45:11.862Z,90.83
2022-07-28T04:47:39.295Z,91.37
2022-07-28T04:50:08.357Z,90.08
2022-07-28T04:52:36.098Z,89.25
2022-07-28T04:55:03.936Z,89.86
2022-07-28T04:57:30.990Z,90.33
2022-07-28T05:00:00.336Z,92.33
2022-07-28T05:02:27.611Z,92.67
2022-07-28T05:04:54.736Z,92.52
2022-07-28T05:07:21.762Z,94.07
2022-07-28T05:09:48.699Z,95.94
2022-07-28T05:12:15.730Z,97.95
2022-07-28T05:14:42.716Z,99.65
2022-07-28T05:17:09.824Z,100.00
2022-07-28T05:19:37.104Z,99.58
2022-07-28T05:22:04.496Z,99.38
2022-07-28T05:24:32.133Z,99.92
2022-07-28T05:26:59.097Z,97.86
2022-07-28T05:29:26.091Z,94.76
2022-07-28T05:32:17.395Z,99.49
2022-07-28T05:34:45.946Z,96.18
2022-07-28T05:37:12.832Z,95.27
2022-07-28T05:39:39.781Z,91.25
2022-07-28T05:42:06.889Z,87.23
2022-07-28T05:44:38.270Z,85.21
2022-07-28T05:47:06.603Z,83.25
2022-07-28T05:49:33.962Z,83.84
2022-07-28T05:52:00.926Z,77.04
2022-07-28T05:54:28.288Z,78.92
2022-07-28T05:56:55.351Z,80.50
2022-07-28T05:59:22.304Z,82.96
2022-07-28T06:01:49.262Z,81.85
2022-07-28T06:04:27.112Z,76.60
2022-07-28T06:06:55.334Z,73.22
2022-07-28T06:09:22.263Z,74.64
2022-07-28T06:11:50.845Z,75.23
2022-07-28T06:14:18.945Z,72.90
2022-07-28T06:16:51.259Z,72.24
2022-07-28T06:19:19.308Z,73.98
2022-07-28T06:21:47.720Z,71.73
2022-07-28T06:24:15.336Z,68.21
2022-07-28T06:26:44.968Z,71.63
2022-07-28T06:29:12.631Z,76.25
2022-07-28T06:31:39.904Z,74.76
2022-07-28T06:34:07.126Z,72.62
2022-07-28T06:36:34.117Z,71.38
2022-07-28T06:39:01.110Z,71.88
2022-07-28T06:41:28.904Z,75.64
2022-07-28T06:43:56.230Z,70.04
2022-07-28T06:46:23.209Z,69.39
2022-07-28T06:48:50.324Z,69.32
2022-07-28T06:51:19.977Z,71.93
2022-07-28T06:53:48.692Z,66.75
2022-07-28T06:56:16.893Z,70.69
2022-07-28T06:58:47.356Z,71.63
2022-07-28T07:01:15.471Z,71.14
2022-07-28T07:03:43.798Z,67.22
2022-07-28T07:06:11.303Z,70.25
2022-07-28T07:08:38.541Z,69.29
2022-07-28T07:11:05.579Z,62.39
2022-07-28T07:13:33.276Z,63.23
2022-07-28T07:16:00.882Z,65.33
2022-07-28T07:18:28.082Z,64.09
2022-07-28T07:20:58.065Z,65.71
2022-07-28T07:23:25.103Z,60.75
2022-07-28T07:25:52.082Z,61.28
2022-07-28T07:28:19.196Z,64.45
2022-07-28T07:30:46.138Z,61.52
2022-07-28T07:33:13.140Z,57.62
2022-07-28T07:35:40.049Z,56.28
2022-07-28T07:38:07.207Z,59.46
2022-07-28T07:40:34.290Z,53.85
2022-07-28T07:43:01.253Z,57.37
2022-07-28T07:45:28.321Z,53.55
2022-07-28T07:47:55.249Z,58.55
2022-07-28T07:50:22.560Z,58.05
2022-07-28T07:52:52.314Z,56.54
2022-07-28T07:55:19.402Z,60.08
2022-07-28T07:57:46.356Z,56.95
2022-07-28T08:00:28.856Z,62.60
2022-07-28T08:02:57.542Z,54.52
2022-07-28T08:05:36.057Z,49.67
2022-07-28T08:08:05.376Z,52.48
2022-07-28T08:10:33.643Z,56.89
2022-07-28T08:13:00.687Z,55.26
2022-07-28T08:15:27.781Z,56.34
2022-07-28T08:17:54.890Z,54.31
2022-07-28T08:20:21.984Z,51.16
2022-07-28T08:22:54.005Z,54.16
2022-07-28T08:25:21.817Z,54.11
2022-07-28T08:27:49.040Z,48.00
2022-07-28T08:30:22.369Z,50.32
2022-07-28T08:32:57.026Z,47.79
2022-07-28T08:35:35.091Z,53.71
2022-07-28T08:38:06.570Z,51.14
2022-07-28T08:40:36.393Z,49.28
2022-07-28T08:43:12.308Z,44.00
2022-07-28T08:45:42.504Z,52.01
2022-07-28T08:48:11.751Z,52.04
2022-07-28T08:50:39.838Z,54.11
2022-07-28T08:53:08.134Z,48.17
2022-07-28T08:55:36.286Z,53.03
2022-07-28T08:58:04.037Z,54.62
2022-07-28T09:00:31.468Z,50.67
2022-07-28T09:02:59.643Z,48.15
2022-07-28T09:05:27.784Z,53.09
2022-07-28T09:07:55.675Z,52.66
2022-07-28T09:10:23.254Z,52.59
2022-07-28T09:12:50.594Z,53.88
2022-07-28T09:15:17.612Z,51.76
2022-07-28T09:17:45.376Z,49.74
2022-07-28T09:20:12.726Z,54.13
2022-07-28T09:23:43.466Z,49.67
2022-07-28T09:26:11.375Z,57.23
2022-07-28T09:28:58.967Z,50.43
2022-07-28T09:31:27.831Z,56.27
2022-07-28T09:34:03.077Z,53.05
2022-07-28T09:36:40.930Z,52.24
2022-07-28T09:39:08.528Z,52.06
2022-07-28T09:41:49.262Z,52.13
2022-07-28T09:44:20.399Z,50.23
2022-07-28T09:46:47.669Z,51.57
2022-07-28T09:49:15.056Z,48.03
2022-07-28T09:51:42.503Z,51.39
2022-07-28T09:54:15.232Z,47.38
2022-07-28T09:56:44.742Z,50.10
2022-07-28T09:59:14.954Z,50.03
2022-07-28T10:02:01.734Z,49.48
2022-07-28T10:04:34.857Z,49.86
2022-07-28T10:07:14.378Z,48.54
2022-07-28T10:09:42.209Z,47.18
2022-07-28T10:12:24.499Z,48.92
2022-07-28T10:14:54.077Z,49.30
2022-07-28T10:17:34.565Z,50.36
2022-07-28T10:20:06.623Z,49.31
2022-07-28T10:22:39.550Z,46.18
2022-07-28T10:25:10.715Z,42.80
2022-07-28T10:27:42.792Z,47.90
2022-07-28T10:30:10.939Z,45.55
2022-07-28T10:32:45.854Z,42.97
2022-07-28T10:35:15.325Z,44.06
2022-07-28T10:38:04.239Z,43.95
2022-07-28T10:40:42.097Z,44.67
2022-07-28T10:43:09.139Z,45.65
2022-07-28T10:46:03.990Z,46.13
2022-07-28T10:48:25.575Z,46.61
2022-07-28T10:50:54.986Z,46.43
2022-07-28T10:53:44.936Z,46.00
2022-07-28T10:56:23.943Z,39.83
2022-07-28T10:59:04.851Z,45.75
2022-07-28T11:01:49.057Z,46.41
2022-07-28T11:04:52.458Z,46.43
2022-07-28T11:07:20.920Z,42.24
2022-07-28T11:09:48.879Z,44.88
2022-07-28T11:12:16.814Z,44.32
2022-07-28T11:14:44.999Z,45.25
2022-07-28T11:17:17.092Z,43.18
2022-07-28T11:20:16.420Z,42.86
2022-07-28T11:22:40.328Z,44.52
2022-07-28T11:25:19.089Z,43.93
2022-07-28T11:27:50.036Z,45.22
2022-07-28T11:30:22.558Z,39.81
2022-07-28T11:32:53.619Z,40.01
2022-07-28T11:35:27.650Z,42.38
2022-07-28T11:38:03.826Z,42.32
2022-07-28T11:40:39.715Z,47.29
2022-07-28T11:43:31.989Z,44.33
2022-07-28T11:46:09.717Z,42.61
2022-07-28T11:48:39.782Z,45.84
2022-07-28T11:51:06.908Z,41.74
2022-07-28T11:53:39.046Z,46.23
2022-07-28T11:56:14.373Z,45.48
2022-07-28T11:58:42.903Z,41.71
2022-07-28T12:01:18.171Z,44.62
2022-07-28T12:03:55.667Z,40.79
2022-07-28T12:06:35.332Z,41.73
2022-07-28T12:09:07.542Z,38.78
2022-07-28T12:11:36.734Z,45.26
2022-07-28T12:14:10.383Z,40.75
2022-07-28T12:16:39.906Z,42.70
2022-07-28T12:19:08.429Z,43.87
2022-07-28T12:21:46.497Z,40.63
2022-07-28T12:24:45.518Z,39.75
2022-07-28T12:27:15.378Z,42.59
2022-07-28T12:29:44.069Z,41.66
2022-07-28T12:32:17.613Z,42.34
2022-07-28T12:34:45.557Z,42.88
2022-07-28T12:37:14.043Z,40.19
2022-07-28T12:39:43.463Z,43.15
2022-07-28T12:42:12.323Z,43.27
2022-07-28T12:44:44.298Z,40.61
2022-07-28T12:47:12.926Z,43.94
2022-07-28T12:49:43.017Z,43.61
2022-07-28T12:52:22.288Z,40.21
2022-07-28T12:54:54.414Z,42.65
2022-07-28T12:57:48.607Z,38.26
2022-07-28T13:00:21.792Z,35.09
2022-07-28T13:02:51.680Z,39.79
2022-07-28T13:05:55.573Z,40.05
2022-07-28T13:08:27.547Z,38.86
2022-07-28T13:10:58.847Z,37.06
2022-07-28T13:13:26.891Z,42.11
2022-07-28T13:16:13.262Z,39.62
2022-07-28T13:18:45.133Z,37.39
2022-07-28T13:21:13.267Z,40.97
2022-07-28T13:23:40.183Z,42.53
2022-07-28T13:26:07.622Z,40.70
2022-07-28T13:28:35.124Z,39.42
2022-07-28T13:31:02.548Z,43.15
2022-07-28T13:33:29.957Z,35.89
2022-07-28T13:35:57.256Z,41.47
2022-07-28T13:38:24.203Z,43.51
2022-07-28T13:40:51.154Z,39.85
2022-07-28T13:43:18.283Z,44.77
2022-07-28T13:45:47.661Z,42.01
2022-07-28T13:48:14.645Z,41.36
2022-07-28T13:50:41.659Z,40.67
2022-07-28T13:53:27.589Z,42.48
2022-07-28T13:56:00.082Z,40.24
2022-07-28T13:58:27.208Z,39.08
2022-07-28T14:00:54.170Z,35.70
2022-07-28T14:03:21.522Z,40.64
2022-07-28T14:05:48.673Z,41.86
2022-07-28T14:08:20.866Z,40.31
2022-07-28T14:10:56.295Z,38.64
2022-07-28T14:13:23.292Z,37.42
2022-07-28T14:16:02.392Z,39.34
2022-07-28T14:18:34.029Z,40.51
2022-07-28T14:21:01.139Z,39.28
2022-07-28T14:23:28.059Z,42.29
2022-07-28T14:26:07.412Z,40.58
2022-07-28T14:28:41.959Z,38.18
2022-07-28T14:31:08.953Z,41.29
2022-07-28T14:33:44.920Z,42.05
2022-07-28T14:36:13.457Z,44.53
2022-07-28T14:38:53.087Z,44.23
2022-07-28T14:41:20.758Z,41.15
2022-07-28T14:43:47.748Z,38.54
2022-07-28T14:46:19.208Z,38.84
2022-07-28T14:48:48.480Z,41.12
2022-07-28T14:51:15.550Z,40.21
2022-07-28T14:53:49.853Z,39.76
2022-07-28T14:56:18.889Z,38.74
2022-07-28T14:58:45.856Z,41.24
2022-07-28T15:01:12.804Z,42.79
2022-07-28T15:03:43.088Z,41.65
2022-07-28T15:06:11.010Z,42.77
2022-07-28T15:08:38.000Z,43.31
2022-07-28T15:11:04.982Z,44.24
2022-07-28T15:13:31.903Z,47.33
2022-07-28T15:16:01.613Z,44.56
2022-07-28T15:18:28.634Z,43.65
2022-07-28T15:20:56.362Z,43.66
2022-07-28T15:23:24.472Z,44.53
2022-07-28T15:25:53.295Z,46.01
2022-07-28T15:28:20.696Z,45.68
2022-07-28T15:30:52.692Z,44.13
2022-07-28T15:33:20.591Z,47.86
2022-07-28T15:35:57.775Z,47.13
2022-07-28T15:38:31.645Z,47.66
2022-07-28T15:40:59.297Z,45.98
2022-07-28T15:43:27.129Z,45.61
2022-07-28T15:45:56.475Z,46.57
2022-07-28T15:48:23.705Z,45.05
2022-07-28T15:50:50.793Z,45.83
2022-07-28T15:53:18.112Z,44.39
2022-07-28T15:55:50.508Z,46.85
2022-07-28T15:58:18.581Z,46.08
2022-07-28T16:00:46.161Z,47.34
2022-07-28T16:03:13.500Z,47.75
2022-07-28T16:05:40.608Z,49.62
2022-07-28T16:08:07.751Z,50.52
2022-07-28T16:10:34.655Z,53.10
2022-07-28T16:13:01.746Z,52.51
2022-07-28T16:15:28.693Z,53.52
2022-07-28T16:17:56.163Z,55.19
2022-07-28T16:20:24.524Z,55.35
2022-07-28T16:22:51.843Z,56.07
2022-07-28T16:25:20.805Z,53.30
2022-07-28T16:27:48.784Z,55.26
2022-07-28T16:30:17.388Z,57.59
2022-07-28T16:32:44.628Z,55.11
2022-07-28T16:35:13.299Z,54.56
2022-07-28T16:37:40.737Z,55.36
2022-07-28T16:40:09.343Z,57.75
2022-07-28T16:42:36.546Z,56.62
2022-07-28T16:45:04.771Z,55.92
2022-07-28T16:47:31.824Z,58.05
2022-07-28T16:49:58.710Z,58.62
2022-07-28T16:52:25.679Z,58.62
2022-07-28T16:54:52.586Z,59.03
2022-07-28T16:57:19.518Z,57.17
2022-07-28T16:59:47.806Z,54.79
2022-07-28T17:02:16.829Z,55.20
2022-07-28T17:04:43.970Z,55.37
2022-07-28T17:07:11.154Z,55.26
2022-07-28T17:09:39.285Z,55.12
2022-07-28T17:12:07.603Z,56.91
2022-07-28T17:14:34.510Z,56.78
2022-07-28T17:17:01.562Z,55.47
2022-07-28T17:19:32.967Z,56.21
2022-07-28T17:22:01.277Z,56.71
2022-07-28T17:24:28.401Z,57.63
2022-07-28T17:29:43.155Z,59.28
2022-07-28T17:32:10.424Z,59.26
2022-07-28T17:34:37.763Z,61.21
2022-07-28T17:37:05.295Z,60.36
2022-07-28T17:39:32.257Z,60.54
2022-07-28T17:41:59.277Z,62.33
2022-07-28T17:44:26.212Z,63.42
2022-07-28T17:46:53.194Z,64.22
2022-07-28T17:49:20.817Z,64.50
2022-07-28T17:51:47.872Z,65.08
2022-07-28T17:54:16.790Z,65.46
2022-07-28T17:56:44.343Z,64.59
2022-07-28T17:59:11.265Z,64.66
2022-07-28T18:01:42.298Z,64.96
2022-07-28T18:04:12.279Z,65.70
2022-07-28T18:06:40.414Z,63.84
2022-07-28T18:09:11.689Z,63.04
2022-07-28T18:11:57.822Z,63.62
2022-07-28T18:14:30.420Z,63.65
2022-07-28T18:16:58.329Z,64.86
2022-07-28T18:19:27.077Z,65.25
2022-07-28T18:21:55.179Z,65.94
2022-07-28T18:24:22.773Z,66.36
2022-07-28T18:26:51.666Z,65.77
2022-07-28T18:29:20.967Z,65.12
2022-07-28T18:31:49.694Z,66.44
2022-07-28T18:34:17.152Z,64.77
2022-07-28T18:36:44.855Z,66.18
2022-07-28T18:39:12.507Z,65.22
2022-07-28T18:41:46.919Z,65.77
2022-07-28T18:44:17.241Z,65.82
2022-07-28T18:46:45.272Z,67.80
2022-07-28T18:49:12.612Z,67.66
2022-07-28T18:51:39.661Z,68.40
2022-07-28T18:54:12.089Z,69.17
2022-07-28T18:56:39.144Z,68.23
2022-07-28T18:59:06.072Z,67.78
2022-07-28T19:01:33.114Z,67.32
2022-07-28T19:04:00.731Z,67.22
2022-07-28T19:06:29.427Z,67.46
2022-07-28T19:08:56.523Z,67.50
2022-07-28T19:11:23.592Z,68.24
2022-07-28T19:13:50.696Z,68.75
2022-07-28T19:16:19.097Z,69.02
2022-07-28T19:18:46.234Z,67.90
2022-07-28T19:21:13.647Z,69.11
2022-07-28T19:23:40.668Z,71.27
2022-07-28T19:26:07.639Z,70.32
2022-07-28T19:28:34.829Z,69.10
2022-07-28T19:31:10.297Z,68.87
2022-07-28T19:33:42.918Z,68.39
2022-07-28T19:36:13.811Z,69.13
2022-07-28T19:38:44.568Z,69.66
2022-07-28T19:41:15.790Z,70.19
2022-07-28T19:43:42.913Z,69.23
2022-07-28T19:46:10.908Z,69.02
2022-07-28T19:48:38.435Z,68.35
2022-07-28T19:51:06.203Z,66.87
2022-07-28T19:53:34.551Z,68.18
2022-07-28T19:56:08.897Z,67.77
2022-07-28T19:58:36.467Z,67.29
2022-07-28T20:01:05.494Z,67.11
2022-07-28T20:04:03.021Z,68.42
2022-07-28T20:06:24.596Z,68.11
2022-07-28T20:08:53.433Z,67.83
2022-07-28T20:11:21.542Z,67.60
2022-07-28T20:14:06.037Z,66.41
2022-07-28T20:16:33.270Z,65.67
2022-07-28T20:19:00.605Z,65.75
2022-07-28T20:21:27.903Z,66.24
2022-07-28T20:23:56.674Z,65.97
2022-07-28T20:26:29.006Z,67.49
2022-07-28T20:29:01.196Z,67.87
2022-07-28T20:31:28.947Z,67.68
2022-07-28T20:33:56.982Z,68.79
2022-07-28T20:36:29.141Z,70.08
2022-07-28T20:38:57.438Z,70.16
2022-07-28T20:41:24.475Z,67.58
2022-07-28T20:44:11.319Z,65.85
2022-07-28T20:46:38.487Z,65.81
2022-07-28T20:49:05.517Z,65.70
2022-07-28T20:51:32.620Z,65.66
2022-07-28T20:53:59.763Z,65.03
2022-07-28T20:56:26.761Z,65.45
2022-07-28T20:58:53.731Z,64.06
2022-07-28T21:01:23.488Z,63.85
2022-07-28T21:03:51.769Z,64.25
2022-07-28T21:06:19.294Z,62.44
2022-07-28T21:08:47.524Z,62.57
2022-07-28T21:11:14.504Z,62.38
2022-07-28T21:13:41.577Z,62.22
2022-07-28T21:16:08.525Z,62.00
2022-07-28T21:18:38.707Z,67.00
2022-07-28T21:21:05.717Z,69.80
2022-07-28T21:23:32.667Z,67.70
2022-07-28T21:25:59.603Z,67.28
2022-07-28T21:28:45.111Z,67.96
2022-07-28T21:31:12.374Z,67.47
2022-07-28T21:33:39.422Z,66.47
2022-07-28T21:36:06.682Z,65.55
2022-07-28T21:38:33.738Z,64.97
2022-07-28T21:41:00.754Z,64.68
2022-07-28T21:43:28.096Z,64.54
2022-07-28T21:45:55.079Z,63.89
2022-07-28T21:48:25.051Z,63.34
2022-07-28T21:50:53.084Z,62.92
2022-07-28T21:53:20.447Z,62.43
2022-07-28T21:55:48.080Z,62.49
2022-07-28T21:58:16.583Z,62.14
2022-07-28T22:00:43.860Z,62.55
2022-07-28T22:03:11.568Z,62.78
2022-07-28T22:05:38.919Z,63.18
2022-07-28T22:08:05.935Z,64.17
2022-07-28T22:10:32.900Z,65.69
2022-07-28T22:13:00.376Z,65.60
2022-07-28T22:15:27.493Z,66.56
2022-07-28T22:17:54.552Z,66.28
2022-07-28T22:20:21.513Z,66.57
2022-07-28T22:22:48.650Z,66.41
2022-07-28T22:25:15.767Z,64.88
2022-07-28T22:27:42.811Z,65.05
2022-07-28T22:30:10.239Z,66.24
2022-07-28T22:32:37.189Z,67.11
2022-07-28T22:35:04.434Z,68.17
2022-07-28T22:37:31.383Z,69.79
2022-07-28T22:39:58.384Z,72.93
2022-07-28T22:42:25.297Z,77.79
2022-07-28T22:44:52.287Z,77.27
2022-07-28T22:47:19.419Z,74.13
2022-07-28T22:49:46.494Z,74.01
2022-07-28T22:52:13.682Z,73.73
2022-07-28T22:54:41.083Z,73.84
2022-07-28T22:57:08.119Z,73.90
2022-07-28T22:59:38.625Z,75.17
2022-07-28T23:02:07.691Z,73.70
2022-07-28T23:04:37.078Z,74.89
2022-07-28T23:07:04.276Z,73.04
2022-07-28T23:12:06.131Z,70.62
2022-07-28T23:14:33.352Z,72.58
2022-07-28T23:17:00.265Z,74.88
2022-07-28T23:19:27.400Z,74.83
2022-07-28T23:21:54.532Z,75.32
2022-07-28T23:24:21.665Z,76.05
2022-07-28T23:26:48.719Z,75.92
2022-07-28T23:29:15.696Z,74.56
2022-07-28T23:31:42.754Z,73.27
2022-07-28T23:34:09.969Z,74.46
2022-07-28T23:36:37.071Z,74.75
2022-07-28T23:39:04.180Z,76.58
2022-07-28T23:41:31.161Z,76.60
2022-07-28T23:43:58.184Z,77.29
2022-07-28T23:46:25.342Z,76.65
2022-07-28T23:48:52.660Z,76.23
2022-07-28T23:51:21.321Z,75.57
2022-07-28T23:53:55.846Z,74.44
2022-07-28T23:56:23.494Z,72.85
2022-07-28T23:58:50.674Z,74.08
